sensor_id;sensor_type;location;lat;lon;timestamp;P1;durP1;ratioP1;P2;durP2;ratioP2
13171;SDS011;6651;53.200;10.432;2024-03-25T00:02:07;8.70;;;3.38;;
13171;SDS011;6651;53.200;10.432;2024-03-25T00:04:33;9.30;;;3.00;;
13171;SDS011;6651;53.200;10.432;2024-03-25T00:06:58;8.05;;;3.15;;
13171;SDS011;6651;53.200;10.432;2024-03-25T00:09:24;7.13;;;2.80;;
13171;SDS011;6651;53.200;10.432;2024-03-25T00:11:50;9.45;;;2.85;;
13171;SDS011;6651;53.200;10.432;2024-03-25T00:14:19;8.45;;;2.97;;
13171;SDS011;6651;53.200;10.432;2024-03-25T00:16:45;8.93;;;3.40;;
13171;SDS011;6651;53.200;10.432;2024-03-25T00:19:11;8.40;;;3.13;;
13171;SDS011;6651;53.200;10.432;2024-03-25T00:21:37;8.57;;;3.00;;
13171;SDS011;6651;53.200;10.432;2024-03-25T00:24:03;11.02;;;3.50;;
13171;SDS011;6651;53.200;10.432;2024-03-25T00:26:29;8.45;;;3.15;;
13171;SDS011;6651;53.200;10.432;2024-03-25T00:28:54;6.47;;;2.67;;
13171;SDS011;6651;53.200;10.432;2024-03-25T00:31:20;10.63;;;3.47;;
13171;SDS011;6651;53.200;10.432;2024-03-25T00:33:46;8.20;;;2.83;;
13171;SDS011;6651;53.200;10.432;2024-03-25T00:36:12;6.32;;;2.78;;
13171;SDS011;6651;53.200;10.432;2024-03-25T00:38:37;8.00;;;2.92;;
13171;SDS011;6651;53.200;10.432;2024-03-25T00:41:03;7.10;;;2.60;;
13171;SDS011;6651;53.200;10.432;2024-03-25T00:43:29;7.03;;;2.80;;
13171;SDS011;6651;53.200;10.432;2024-03-25T00:45:54;9.25;;;2.83;;
13171;SDS011;6651;53.200;10.432;2024-03-25T00:48:21;9.25;;;3.10;;
13171;SDS011;6651;53.200;10.432;2024-03-25T00:50:47;7.38;;;2.70;;
13171;SDS011;6651;53.200;10.432;2024-03-25T00:53:13;6.97;;;2.72;;
13171;SDS011;6651;53.200;10.432;2024-03-25T00:55:39;8.70;;;3.47;;
13171;SDS011;6651;53.200;10.432;2024-03-25T00:58:05;7.60;;;2.80;;
13171;SDS011;6651;53.200;10.432;2024-03-25T01:00:31;7.40;;;2.95;;
13171;SDS011;6651;53.200;10.432;2024-03-25T01:02:56;7.43;;;2.50;;
13171;SDS011;6651;53.200;10.432;2024-03-25T01:05:22;6.85;;;2.85;;
13171;SDS011;6651;53.200;10.432;2024-03-25T01:07:48;9.45;;;2.70;;
13171;SDS011;6651;53.200;10.432;2024-03-25T01:10:14;9.23;;;2.97;;
13171;SDS011;6651;53.200;10.432;2024-03-25T01:12:41;5.80;;;2.80;;
13171;SDS011;6651;53.200;10.432;2024-03-25T01:15:06;5.47;;;2.30;;
13171;SDS011;6651;53.200;10.432;2024-03-25T01:17:35;8.55;;;3.15;;
13171;SDS011;6651;53.200;10.432;2024-03-25T01:20:01;6.70;;;2.63;;
13171;SDS011;6651;53.200;10.432;2024-03-25T01:22:27;10.32;;;3.33;;
13171;SDS011;6651;53.200;10.432;2024-03-25T01:24:52;7.93;;;3.03;;
13171;SDS011;6651;53.200;10.432;2024-03-25T01:27:18;8.13;;;2.80;;
13171;SDS011;6651;53.200;10.432;2024-03-25T01:29:44;5.07;;;2.60;;
13171;SDS011;6651;53.200;10.432;2024-03-25T01:32:10;6.88;;;2.88;;
13171;SDS011;6651;53.200;10.432;2024-03-25T01:34:35;6.70;;;2.50;;
13171;SDS011;6651;53.200;10.432;2024-03-25T01:37:01;5.70;;;2.63;;
13171;SDS011;6651;53.200;10.432;2024-03-25T01:39:26;8.85;;;2.88;;
13171;SDS011;6651;53.200;10.432;2024-03-25T01:41:52;6.30;;;2.65;;
13171;SDS011;6651;53.200;10.432;2024-03-25T01:44:18;8.55;;;2.60;;
13171;SDS011;6651;53.200;10.432;2024-03-25T01:46:43;6.35;;;2.45;;
13171;SDS011;6651;53.200;10.432;2024-03-25T01:49:09;6.85;;;2.25;;
13171;SDS011;6651;53.200;10.432;2024-03-25T01:51:36;6.32;;;2.90;;
13171;SDS011;6651;53.200;10.432;2024-03-25T01:54:03;6.43;;;2.40;;
13171;SDS011;6651;53.200;10.432;2024-03-25T01:56:30;6.43;;;2.63;;
13171;SDS011;6651;53.200;10.432;2024-03-25T01:58:58;7.07;;;3.13;;
13171;SDS011;6651;53.200;10.432;2024-03-25T02:01:25;7.00;;;2.75;;
13171;SDS011;6651;53.200;10.432;2024-03-25T02:03:52;6.80;;;2.70;;
13171;SDS011;6651;53.200;10.432;2024-03-25T02:06:19;8.25;;;2.92;;
13171;SDS011;6651;53.200;10.432;2024-03-25T02:08:46;5.65;;;2.28;;
13171;SDS011;6651;53.200;10.432;2024-03-25T02:11:13;6.70;;;2.78;;
13171;SDS011;6651;53.200;10.432;2024-03-25T02:13:39;7.43;;;2.75;;
13171;SDS011;6651;53.200;10.432;2024-03-25T02:16:05;8.65;;;2.85;;
13171;SDS011;6651;53.200;10.432;2024-03-25T02:18:31;8.02;;;2.67;;
13171;SDS011;6651;53.200;10.432;2024-03-25T02:20:58;6.72;;;2.70;;
13171;SDS011;6651;53.200;10.432;2024-03-25T02:23:24;7.03;;;2.60;;
13171;SDS011;6651;53.200;10.432;2024-03-25T02:25:50;8.10;;;2.47;;
13171;SDS011;6651;53.200;10.432;2024-03-25T02:28:16;6.13;;;2.60;;
13171;SDS011;6651;53.200;10.432;2024-03-25T02:30:42;6.80;;;2.58;;
13171;SDS011;6651;53.200;10.432;2024-03-25T02:33:08;6.10;;;2.45;;
13171;SDS011;6651;53.200;10.432;2024-03-25T02:35:33;6.45;;;2.65;;
13171;SDS011;6651;53.200;10.432;2024-03-25T02:38:00;5.97;;;2.47;;
13171;SDS011;6651;53.200;10.432;2024-03-25T02:40:28;6.18;;;2.60;;
13171;SDS011;6651;53.200;10.432;2024-03-25T02:42:54;6.40;;;2.38;;
13171;SDS011;6651;53.200;10.432;2024-03-25T02:45:19;4.43;;;2.25;;
13171;SDS011;6651;53.200;10.432;2024-03-25T02:47:45;5.03;;;2.58;;
13171;SDS011;6651;53.200;10.432;2024-03-25T02:50:11;5.40;;;2.60;;
13171;SDS011;6651;53.200;10.432;2024-03-25T02:52:37;6.38;;;2.30;;
13171;SDS011;6651;53.200;10.432;2024-03-25T02:55:02;8.35;;;2.90;;
13171;SDS011;6651;53.200;10.432;2024-03-25T02:57:28;5.05;;;2.22;;
13171;SDS011;6651;53.200;10.432;2024-03-25T02:59:54;7.18;;;2.47;;
13171;SDS011;6651;53.200;10.432;2024-03-25T03:02:20;6.18;;;2.35;;
13171;SDS011;6651;53.200;10.432;2024-03-25T03:04:45;6.50;;;2.53;;
13171;SDS011;6651;53.200;10.432;2024-03-25T03:07:11;4.28;;;2.05;;
13171;SDS011;6651;53.200;10.432;2024-03-25T03:09:37;4.45;;;2.50;;
13171;SDS011;6651;53.200;10.432;2024-03-25T03:12:02;3.40;;;1.92;;
13171;SDS011;6651;53.200;10.432;2024-03-25T03:14:28;5.43;;;2.22;;
13171;SDS011;6651;53.200;10.432;2024-03-25T03:16:54;6.03;;;2.22;;
13171;SDS011;6651;53.200;10.432;2024-03-25T03:19:22;6.68;;;2.33;;
13171;SDS011;6651;53.200;10.432;2024-03-25T03:21:51;5.47;;;2.10;;
13171;SDS011;6651;53.200;10.432;2024-03-25T03:24:17;4.78;;;2.38;;
13171;SDS011;6651;53.200;10.432;2024-03-25T03:26:43;5.82;;;2.10;;
13171;SDS011;6651;53.200;10.432;2024-03-25T03:29:09;4.32;;;2.40;;
13171;SDS011;6651;53.200;10.432;2024-03-25T03:31:35;6.45;;;2.20;;
13171;SDS011;6651;53.200;10.432;2024-03-25T03:34:01;4.97;;;2.17;;
13171;SDS011;6651;53.200;10.432;2024-03-25T03:36:27;4.38;;;2.30;;
13171;SDS011;6651;53.200;10.432;2024-03-25T03:38:52;7.38;;;2.42;;
13171;SDS011;6651;53.200;10.432;2024-03-25T03:41:19;7.35;;;2.20;;
13171;SDS011;6651;53.200;10.432;2024-03-25T03:43:44;7.47;;;2.67;;
13171;SDS011;6651;53.200;10.432;2024-03-25T03:46:10;4.43;;;2.25;;
13171;SDS011;6651;53.200;10.432;2024-03-25T03:48:36;4.95;;;2.30;;
13171;SDS011;6651;53.200;10.432;2024-03-25T03:51:03;5.50;;;2.58;;
13171;SDS011;6651;53.200;10.432;2024-03-25T03:53:29;7.10;;;2.60;;
13171;SDS011;6651;53.200;10.432;2024-03-25T03:58:21;6.50;;;2.85;;
13171;SDS011;6651;53.200;10.432;2024-03-25T04:00:47;7.72;;;2.65;;
13171;SDS011;6651;53.200;10.432;2024-03-25T04:03:13;6.50;;;2.45;;
13171;SDS011;6651;53.200;10.432;2024-03-25T04:05:39;5.30;;;2.67;;
13171;SDS011;6651;53.200;10.432;2024-03-25T04:08:04;5.75;;;2.50;;
13171;SDS011;6651;53.200;10.432;2024-03-25T04:10:30;6.25;;;2.45;;
13171;SDS011;6651;53.200;10.432;2024-03-25T04:12:56;5.22;;;2.70;;
13171;SDS011;6651;53.200;10.432;2024-03-25T04:15:22;6.22;;;2.38;;
13171;SDS011;6651;53.200;10.432;2024-03-25T04:17:48;5.03;;;2.20;;
13171;SDS011;6651;53.200;10.432;2024-03-25T04:20:16;7.47;;;2.70;;
13171;SDS011;6651;53.200;10.432;2024-03-25T04:22:42;4.43;;;2.10;;
13171;SDS011;6651;53.200;10.432;2024-03-25T04:25:12;4.88;;;2.30;;
13171;SDS011;6651;53.200;10.432;2024-03-25T04:27:41;3.85;;;2.08;;
13171;SDS011;6651;53.200;10.432;2024-03-25T04:30:08;6.25;;;2.65;;
13171;SDS011;6651;53.200;10.432;2024-03-25T04:32:35;6.40;;;2.38;;
13171;SDS011;6651;53.200;10.432;2024-03-25T04:35:01;5.25;;;2.20;;
13171;SDS011;6651;53.200;10.432;2024-03-25T04:37:28;3.83;;;2.22;;
13171;SDS011;6651;53.200;10.432;2024-03-25T04:39:54;4.03;;;1.98;;
13171;SDS011;6651;53.200;10.432;2024-03-25T04:42:21;3.30;;;1.80;;
13171;SDS011;6651;53.200;10.432;2024-03-25T04:44:47;5.40;;;2.30;;
13171;SDS011;6651;53.200;10.432;2024-03-25T04:47:13;4.05;;;1.98;;
13171;SDS011;6651;53.200;10.432;2024-03-25T04:49:40;3.95;;;2.03;;
13171;SDS011;6651;53.200;10.432;2024-03-25T04:52:06;3.50;;;2.10;;
13171;SDS011;6651;53.200;10.432;2024-03-25T04:54:32;4.18;;;2.10;;
13171;SDS011;6651;53.200;10.432;2024-03-25T04:56:58;4.07;;;2.00;;
13171;SDS011;6651;53.200;10.432;2024-03-25T04:59:23;3.70;;;1.92;;
13171;SDS011;6651;53.200;10.432;2024-03-25T05:01:50;4.82;;;2.10;;
13171;SDS011;6651;53.200;10.432;2024-03-25T05:04:17;6.97;;;2.38;;
13171;SDS011;6651;53.200;10.432;2024-03-25T05:06:43;6.93;;;2.63;;
13171;SDS011;6651;53.200;10.432;2024-03-25T05:09:09;5.70;;;2.60;;
13171;SDS011;6651;53.200;10.432;2024-03-25T05:11:35;4.18;;;2.22;;
13171;SDS011;6651;53.200;10.432;2024-03-25T05:14:01;6.13;;;2.78;;
13171;SDS011;6651;53.200;10.432;2024-03-25T05:16:26;8.07;;;2.83;;
13171;SDS011;6651;53.200;10.432;2024-03-25T05:18:52;5.68;;;2.90;;
13171;SDS011;6651;53.200;10.432;2024-03-25T05:21:18;6.05;;;3.13;;
13171;SDS011;6651;53.200;10.432;2024-03-25T05:23:43;7.03;;;3.65;;
13171;SDS011;6651;53.200;10.432;2024-03-25T05:26:09;6.25;;;2.83;;
13171;SDS011;6651;53.200;10.432;2024-03-25T05:28:35;8.05;;;3.30;;
13171;SDS011;6651;53.200;10.432;2024-03-25T05:31:07;6.38;;;3.00;;
13171;SDS011;6651;53.200;10.432;2024-03-25T05:33:33;7.05;;;3.65;;
13171;SDS011;6651;53.200;10.432;2024-03-25T05:35:59;6.78;;;3.72;;
13171;SDS011;6651;53.200;10.432;2024-03-25T05:38:25;6.07;;;3.30;;
13171;SDS011;6651;53.200;10.432;2024-03-25T05:40:54;6.45;;;3.10;;
13171;SDS011;6651;53.200;10.432;2024-03-25T05:43:20;5.90;;;3.20;;
13171;SDS011;6651;53.200;10.432;2024-03-25T05:45:55;5.85;;;3.17;;
13171;SDS011;6651;53.200;10.432;2024-03-25T05:48:23;6.22;;;3.20;;
13171;SDS011;6651;53.200;10.432;2024-03-25T05:51:23;6.03;;;3.25;;
13171;SDS011;6651;53.200;10.432;2024-03-25T05:53:42;5.00;;;3.10;;
13171;SDS011;6651;53.200;10.432;2024-03-25T05:56:07;5.43;;;3.03;;
13171;SDS011;6651;53.200;10.432;2024-03-25T05:58:33;9.77;;;4.57;;
13171;SDS011;6651;53.200;10.432;2024-03-25T06:00:58;6.60;;;3.45;;
13171;SDS011;6651;53.200;10.432;2024-03-25T06:03:26;7.78;;;3.33;;
13171;SDS011;6651;53.200;10.432;2024-03-25T06:05:51;6.07;;;3.35;;
13171;SDS011;6651;53.200;10.432;2024-03-25T06:08:17;4.80;;;3.00;;
13171;SDS011;6651;53.200;10.432;2024-03-25T06:10:51;5.80;;;3.20;;
13171;SDS011;6651;53.200;10.432;2024-03-25T06:13:18;6.68;;;3.30;;
13171;SDS011;6651;53.200;10.432;2024-03-25T06:15:44;6.82;;;3.70;;
13171;SDS011;6651;53.200;10.432;2024-03-25T06:18:10;5.32;;;3.45;;
13171;SDS011;6651;53.200;10.432;2024-03-25T06:20:36;6.72;;;3.20;;
13171;SDS011;6651;53.200;10.432;2024-03-25T06:23:02;5.43;;;3.42;;
13171;SDS011;6651;53.200;10.432;2024-03-25T06:25:27;6.82;;;3.38;;
13171;SDS011;6651;53.200;10.432;2024-03-25T06:27:56;5.78;;;3.15;;
13171;SDS011;6651;53.200;10.432;2024-03-25T06:30:22;5.20;;;3.15;;
13171;SDS011;6651;53.200;10.432;2024-03-25T06:33:06;7.80;;;3.42;;
13171;SDS011;6651;53.200;10.432;2024-03-25T06:35:50;7.25;;;3.55;;
13171;SDS011;6651;53.200;10.432;2024-03-25T06:38:17;6.85;;;3.25;;
13171;SDS011;6651;53.200;10.432;2024-03-25T06:40:42;7.45;;;3.55;;
13171;SDS011;6651;53.200;10.432;2024-03-25T06:43:10;6.00;;;3.05;;
13171;SDS011;6651;53.200;10.432;2024-03-25T06:45:35;8.35;;;3.47;;
13171;SDS011;6651;53.200;10.432;2024-03-25T06:48:01;7.85;;;4.15;;
13171;SDS011;6651;53.200;10.432;2024-03-25T06:50:26;6.68;;;3.70;;
13171;SDS011;6651;53.200;10.432;2024-03-25T06:52:52;7.05;;;3.55;;
13171;SDS011;6651;53.200;10.432;2024-03-25T06:55:18;7.38;;;3.83;;
13171;SDS011;6651;53.200;10.432;2024-03-25T06:57:47;5.93;;;3.92;;
13171;SDS011;6651;53.200;10.432;2024-03-25T07:00:15;6.55;;;3.20;;
13171;SDS011;6651;53.200;10.432;2024-03-25T07:02:41;5.75;;;3.20;;
13171;SDS011;6651;53.200;10.432;2024-03-25T07:05:07;5.15;;;3.10;;
13171;SDS011;6651;53.200;10.432;2024-03-25T07:07:33;6.47;;;3.08;;
13171;SDS011;6651;53.200;10.432;2024-03-25T07:09:59;6.32;;;3.25;;
13171;SDS011;6651;53.200;10.432;2024-03-25T07:12:26;8.68;;;3.25;;
13171;SDS011;6651;53.200;10.432;2024-03-25T07:14:51;6.53;;;3.38;;
13171;SDS011;6651;53.200;10.432;2024-03-25T07:17:17;6.68;;;3.00;;
13171;SDS011;6651;53.200;10.432;2024-03-25T07:19:43;7.28;;;3.08;;
13171;SDS011;6651;53.200;10.432;2024-03-25T07:22:09;9.43;;;3.40;;
13171;SDS011;6651;53.200;10.432;2024-03-25T07:24:35;6.88;;;3.50;;
13171;SDS011;6651;53.200;10.432;2024-03-25T07:27:01;6.90;;;3.05;;
13171;SDS011;6651;53.200;10.432;2024-03-25T07:29:27;5.53;;;3.05;;
13171;SDS011;6651;53.200;10.432;2024-03-25T07:31:52;6.80;;;3.35;;
13171;SDS011;6651;53.200;10.432;2024-03-25T07:34:18;6.45;;;3.05;;
13171;SDS011;6651;53.200;10.432;2024-03-25T07:36:44;5.15;;;3.13;;
13171;SDS011;6651;53.200;10.432;2024-03-25T07:39:09;5.70;;;2.83;;
13171;SDS011;6651;53.200;10.432;2024-03-25T07:41:38;7.15;;;3.38;;
13171;SDS011;6651;53.200;10.432;2024-03-25T07:44:03;5.78;;;2.88;;
13171;SDS011;6651;53.200;10.432;2024-03-25T07:46:29;6.13;;;2.78;;
13171;SDS011;6651;53.200;10.432;2024-03-25T07:48:55;7.25;;;3.38;;
13171;SDS011;6651;53.200;10.432;2024-03-25T07:51:21;6.90;;;3.28;;
13171;SDS011;6651;53.200;10.432;2024-03-25T07:53:47;7.38;;;3.00;;
13171;SDS011;6651;53.200;10.432;2024-03-25T07:56:12;7.57;;;2.67;;
13171;SDS011;6651;53.200;10.432;2024-03-25T07:58:40;7.05;;;3.03;;
13171;SDS011;6651;53.200;10.432;2024-03-25T08:01:06;8.35;;;2.83;;
13171;SDS011;6651;53.200;10.432;2024-03-25T08:03:31;5.63;;;2.70;;
13171;SDS011;6651;53.200;10.432;2024-03-25T08:05:57;7.43;;;3.10;;
13171;SDS011;6651;53.200;10.432;2024-03-25T08:08:23;6.05;;;3.00;;
13171;SDS011;6651;53.200;10.432;2024-03-25T08:10:48;6.57;;;2.75;;
13171;SDS011;6651;53.200;10.432;2024-03-25T08:13:14;7.55;;;2.90;;
13171;SDS011;6651;53.200;10.432;2024-03-25T08:15:39;5.40;;;2.95;;
13171;SDS011;6651;53.200;10.432;2024-03-25T08:18:06;6.18;;;2.92;;
13171;SDS011;6651;53.200;10.432;2024-03-25T08:20:32;7.72;;;2.70;;
13171;SDS011;6651;53.200;10.432;2024-03-25T08:22:57;6.95;;;2.65;;
13171;SDS011;6651;53.200;10.432;2024-03-25T08:25:23;7.10;;;2.90;;
13171;SDS011;6651;53.200;10.432;2024-03-25T08:27:49;7.35;;;3.13;;
13171;SDS011;6651;53.200;10.432;2024-03-25T08:30:14;6.10;;;2.60;;
13171;SDS011;6651;53.200;10.432;2024-03-25T08:32:40;8.00;;;2.83;;
13171;SDS011;6651;53.200;10.432;2024-03-25T08:35:05;7.25;;;2.85;;
13171;SDS011;6651;53.200;10.432;2024-03-25T08:37:31;6.40;;;3.05;;
13171;SDS011;6651;53.200;10.432;2024-03-25T08:39:57;7.00;;;2.60;;
13171;SDS011;6651;53.200;10.432;2024-03-25T08:42:22;7.78;;;2.95;;
13171;SDS011;6651;53.200;10.432;2024-03-25T08:44:48;9.20;;;3.10;;
13171;SDS011;6651;53.200;10.432;2024-03-25T08:47:14;8.38;;;2.85;;
13171;SDS011;6651;53.200;10.432;2024-03-25T08:49:39;7.75;;;2.70;;
13171;SDS011;6651;53.200;10.432;2024-03-25T08:52:05;7.88;;;2.55;;
13171;SDS011;6651;53.200;10.432;2024-03-25T08:54:31;7.13;;;2.63;;
13171;SDS011;6651;53.200;10.432;2024-03-25T08:56:56;6.20;;;2.40;;
13171;SDS011;6651;53.200;10.432;2024-03-25T08:59:22;6.13;;;2.88;;
13171;SDS011;6651;53.200;10.432;2024-03-25T09:01:47;5.00;;;2.60;;
13171;SDS011;6651;53.200;10.432;2024-03-25T09:04:13;7.35;;;3.15;;
13171;SDS011;6651;53.200;10.432;2024-03-25T09:06:39;7.88;;;2.90;;
13171;SDS011;6651;53.200;10.432;2024-03-25T09:09:05;6.97;;;2.55;;
13171;SDS011;6651;53.200;10.432;2024-03-25T09:11:49;4.78;;;2.42;;
13171;SDS011;6651;53.200;10.432;2024-03-25T09:14:14;6.40;;;2.70;;
13171;SDS011;6651;53.200;10.432;2024-03-25T09:16:40;7.43;;;2.80;;
13171;SDS011;6651;53.200;10.432;2024-03-25T09:19:05;9.20;;;3.30;;
13171;SDS011;6651;53.200;10.432;2024-03-25T09:21:31;7.88;;;2.50;;
13171;SDS011;6651;53.200;10.432;2024-03-25T09:23:57;8.48;;;2.40;;
13171;SDS011;6651;53.200;10.432;2024-03-25T09:26:23;6.20;;;2.60;;
13171;SDS011;6651;53.200;10.432;2024-03-25T09:28:49;6.50;;;2.60;;
13171;SDS011;6651;53.200;10.432;2024-03-25T09:31:14;8.30;;;2.65;;
13171;SDS011;6651;53.200;10.432;2024-03-25T09:33:40;11.50;;;3.17;;
13171;SDS011;6651;53.200;10.432;2024-03-25T09:36:05;7.72;;;3.83;;
13171;SDS011;6651;53.200;10.432;2024-03-25T09:38:31;8.15;;;2.72;;
13171;SDS011;6651;53.200;10.432;2024-03-25T09:40:57;9.85;;;2.92;;
13171;SDS011;6651;53.200;10.432;2024-03-25T09:43:23;8.20;;;3.20;;
13171;SDS011;6651;53.200;10.432;2024-03-25T09:45:56;10.63;;;3.38;;
13171;SDS011;6651;53.200;10.432;2024-03-25T09:48:24;7.00;;;2.38;;
13171;SDS011;6651;53.200;10.432;2024-03-25T09:50:50;6.50;;;2.78;;
13171;SDS011;6651;53.200;10.432;2024-03-25T09:53:18;10.73;;;3.05;;
13171;SDS011;6651;53.200;10.432;2024-03-25T09:55:45;7.28;;;2.80;;
13171;SDS011;6651;53.200;10.432;2024-03-25T09:58:12;7.80;;;2.85;;
13171;SDS011;6651;53.200;10.432;2024-03-25T10:00:41;7.97;;;2.53;;
13171;SDS011;6651;53.200;10.432;2024-03-25T10:03:07;5.93;;;2.35;;
13171;SDS011;6651;53.200;10.432;2024-03-25T10:05:33;6.35;;;2.40;;
13171;SDS011;6651;53.200;10.432;2024-03-25T10:07:59;5.90;;;2.38;;
13171;SDS011;6651;53.200;10.432;2024-03-25T10:10:25;6.18;;;1.95;;
13171;SDS011;6651;53.200;10.432;2024-03-25T10:12:51;7.40;;;2.35;;
13171;SDS011;6651;53.200;10.432;2024-03-25T10:15:19;8.35;;;2.35;;
13171;SDS011;6651;53.200;10.432;2024-03-25T10:17:46;7.45;;;2.40;;
13171;SDS011;6651;53.200;10.432;2024-03-25T10:20:14;5.88;;;2.38;;
13171;SDS011;6651;53.200;10.432;2024-03-25T10:22:40;8.70;;;2.33;;
13171;SDS011;6651;53.200;10.432;2024-03-25T10:25:23;7.22;;;2.55;;
13171;SDS011;6651;53.200;10.432;2024-03-25T10:27:56;5.82;;;2.05;;
13171;SDS011;6651;53.200;10.432;2024-03-25T10:30:23;6.25;;;2.45;;
13171;SDS011;6651;53.200;10.432;2024-03-25T10:35:29;5.90;;;2.35;;
13171;SDS011;6651;53.200;10.432;2024-03-25T10:38:00;5.95;;;2.30;;
13171;SDS011;6651;53.200;10.432;2024-03-25T10:40:27;7.75;;;2.30;;
13171;SDS011;6651;53.200;10.432;2024-03-25T10:43:04;4.38;;;2.20;;
13171;SDS011;6651;53.200;10.432;2024-03-25T10:45:33;8.18;;;2.70;;
13171;SDS011;6651;53.200;10.432;2024-03-25T10:48:11;6.63;;;2.25;;
13171;SDS011;6651;53.200;10.432;2024-03-25T10:50:43;6.68;;;2.33;;
13171;SDS011;6651;53.200;10.432;2024-03-25T10:53:10;6.38;;;2.30;;
13171;SDS011;6651;53.200;10.432;2024-03-25T10:55:36;6.05;;;2.20;;
13171;SDS011;6651;53.200;10.432;2024-03-25T10:58:02;8.38;;;2.20;;
13171;SDS011;6651;53.200;10.432;2024-03-25T11:00:31;8.27;;;2.53;;
13171;SDS011;6651;53.200;10.432;2024-03-25T11:02:58;6.32;;;2.28;;
13171;SDS011;6651;53.200;10.432;2024-03-25T11:05:24;6.88;;;2.40;;
13171;SDS011;6651;53.200;10.432;2024-03-25T11:07:51;7.53;;;2.15;;
13171;SDS011;6651;53.200;10.432;2024-03-25T11:10:16;6.18;;;1.85;;
13171;SDS011;6651;53.200;10.432;2024-03-25T11:12:42;6.68;;;2.10;;
13171;SDS011;6651;53.200;10.432;2024-03-25T11:15:08;7.32;;;2.70;;
13171;SDS011;6651;53.200;10.432;2024-03-25T11:17:35;5.97;;;2.00;;
13171;SDS011;6651;53.200;10.432;2024-03-25T11:20:08;5.53;;;2.10;;
13171;SDS011;6651;53.200;10.432;2024-03-25T11:22:35;7.28;;;2.08;;
13171;SDS011;6651;53.200;10.432;2024-03-25T11:25:07;6.15;;;1.90;;
13171;SDS011;6651;53.200;10.432;2024-03-25T11:27:36;5.00;;;2.10;;
13171;SDS011;6651;53.200;10.432;2024-03-25T11:30:05;4.72;;;1.95;;
13171;SDS011;6651;53.200;10.432;2024-03-25T11:32:40;4.68;;;2.00;;
13171;SDS011;6651;53.200;10.432;2024-03-25T11:35:19;6.57;;;1.83;;
13171;SDS011;6651;53.200;10.432;2024-03-25T11:37:45;5.35;;;1.83;;
13171;SDS011;6651;53.200;10.432;2024-03-25T11:40:11;5.10;;;1.92;;
13171;SDS011;6651;53.200;10.432;2024-03-25T11:42:42;4.68;;;1.83;;
13171;SDS011;6651;53.200;10.432;2024-03-25T11:45:30;6.10;;;2.03;;
13171;SDS011;6651;53.200;10.432;2024-03-25T11:47:54;6.68;;;1.98;;
13171;SDS011;6651;53.200;10.432;2024-03-25T11:50:20;5.47;;;1.80;;
13171;SDS011;6651;53.200;10.432;2024-03-25T11:52:46;5.15;;;1.80;;
13171;SDS011;6651;53.200;10.432;2024-03-25T11:55:16;5.03;;;2.25;;
13171;SDS011;6651;53.200;10.432;2024-03-25T11:57:42;4.13;;;2.00;;
13171;SDS011;6651;53.200;10.432;2024-03-25T12:00:08;7.15;;;2.20;;
13171;SDS011;6651;53.200;10.432;2024-03-25T12:02:38;5.57;;;2.22;;
13171;SDS011;6651;53.200;10.432;2024-03-25T12:05:08;5.00;;;1.92;;
13171;SDS011;6651;53.200;10.432;2024-03-25T12:07:33;4.63;;;2.20;;
13171;SDS011;6651;53.200;10.432;2024-03-25T12:10:00;6.18;;;1.95;;
13171;SDS011;6651;53.200;10.432;2024-03-25T12:12:45;10.88;;;2.38;;
13171;SDS011;6651;53.200;10.432;2024-03-25T12:15:11;5.43;;;2.28;;
13171;SDS011;6651;53.200;10.432;2024-03-25T12:17:36;8.32;;;2.28;;
13171;SDS011;6651;53.200;10.432;2024-03-25T12:20:06;6.63;;;2.17;;
13171;SDS011;6651;53.200;10.432;2024-03-25T12:22:42;7.15;;;2.60;;
13171;SDS011;6651;53.200;10.432;2024-03-25T12:25:09;4.10;;;1.83;;
13171;SDS011;6651;53.200;10.432;2024-03-25T12:27:36;8.55;;;2.35;;
13171;SDS011;6651;53.200;10.432;2024-03-25T12:30:06;6.88;;;2.38;;
13171;SDS011;6651;53.200;10.432;2024-03-25T12:32:42;7.43;;;3.20;;
13171;SDS011;6651;53.200;10.432;2024-03-25T12:37:41;5.70;;;2.38;;
13171;SDS011;6651;53.200;10.432;2024-03-25T12:40:12;8.32;;;2.90;;
13171;SDS011;6651;53.200;10.432;2024-03-25T12:42:51;4.38;;;2.28;;
13171;SDS011;6651;53.200;10.432;2024-03-25T12:45:18;5.65;;;2.20;;
13171;SDS011;6651;53.200;10.432;2024-03-25T12:47:45;9.88;;;4.07;;
13171;SDS011;6651;53.200;10.432;2024-03-25T12:50:10;7.22;;;2.70;;
13171;SDS011;6651;53.200;10.432;2024-03-25T12:52:36;7.10;;;2.40;;
13171;SDS011;6651;53.200;10.432;2024-03-25T12:55:02;4.88;;;1.90;;
13171;SDS011;6651;53.200;10.432;2024-03-25T12:57:28;6.45;;;1.92;;
13171;SDS011;6651;53.200;10.432;2024-03-25T12:59:54;5.00;;;1.70;;
13171;SDS011;6651;53.200;10.432;2024-03-25T13:02:20;5.32;;;1.90;;
13171;SDS011;6651;53.200;10.432;2024-03-25T13:04:45;6.47;;;2.15;;
13171;SDS011;6651;53.200;10.432;2024-03-25T13:07:11;5.72;;;2.08;;
13171;SDS011;6651;53.200;10.432;2024-03-25T13:09:37;4.97;;;1.88;;
13171;SDS011;6651;53.200;10.432;2024-03-25T13:12:03;7.80;;;2.03;;
13171;SDS011;6651;53.200;10.432;2024-03-25T13:14:29;5.60;;;2.10;;
13171;SDS011;6651;53.200;10.432;2024-03-25T13:16:54;5.00;;;1.75;;
13171;SDS011;6651;53.200;10.432;2024-03-25T13:19:20;7.13;;;2.30;;
13171;SDS011;6651;53.200;10.432;2024-03-25T13:21:46;5.68;;;2.25;;
13171;SDS011;6651;53.200;10.432;2024-03-25T13:24:12;4.85;;;1.83;;
13171;SDS011;6651;53.200;10.432;2024-03-25T13:26:39;6.75;;;1.85;;
13171;SDS011;6651;53.200;10.432;2024-03-25T13:29:04;6.38;;;2.28;;
13171;SDS011;6651;53.200;10.432;2024-03-25T13:31:32;5.88;;;2.10;;
13171;SDS011;6651;53.200;10.432;2024-03-25T13:33:58;5.10;;;2.03;;
13171;SDS011;6651;53.200;10.432;2024-03-25T13:36:24;6.25;;;2.22;;
13171;SDS011;6651;53.200;10.432;2024-03-25T13:38:49;7.18;;;2.33;;
13171;SDS011;6651;53.200;10.432;2024-03-25T13:41:15;5.38;;;2.03;;
13171;SDS011;6651;53.200;10.432;2024-03-25T13:43:43;8.20;;;2.50;;
13171;SDS011;6651;53.200;10.432;2024-03-25T13:46:09;6.88;;;2.25;;
13171;SDS011;6651;53.200;10.432;2024-03-25T13:48:37;5.63;;;2.22;;
13171;SDS011;6651;53.200;10.432;2024-03-25T13:51:02;6.40;;;2.30;;
13171;SDS011;6651;53.200;10.432;2024-03-25T13:53:28;6.75;;;2.10;;
13171;SDS011;6651;53.200;10.432;2024-03-25T13:55:54;6.53;;;2.38;;
13171;SDS011;6651;53.200;10.432;2024-03-25T13:58:20;5.15;;;1.98;;
13171;SDS011;6651;53.200;10.432;2024-03-25T14:00:45;6.68;;;2.38;;
13171;SDS011;6651;53.200;10.432;2024-03-25T14:03:11;7.07;;;2.17;;
13171;SDS011;6651;53.200;10.432;2024-03-25T14:05:37;10.13;;;2.72;;
13171;SDS011;6651;53.200;10.432;2024-03-25T14:08:02;6.13;;;2.40;;
13171;SDS011;6651;53.200;10.432;2024-03-25T14:10:28;6.13;;;2.50;;
13171;SDS011;6651;53.200;10.432;2024-03-25T14:12:55;6.97;;;2.50;;
13171;SDS011;6651;53.200;10.432;2024-03-25T14:15:20;5.55;;;2.38;;
13171;SDS011;6651;53.200;10.432;2024-03-25T14:17:46;10.43;;;2.28;;
13171;SDS011;6651;53.200;10.432;2024-03-25T14:20:12;6.93;;;2.20;;
13171;SDS011;6651;53.200;10.432;2024-03-25T14:22:38;7.70;;;2.30;;
13171;SDS011;6651;53.200;10.432;2024-03-25T14:25:03;8.30;;;2.30;;
13171;SDS011;6651;53.200;10.432;2024-03-25T14:27:29;6.30;;;2.28;;
13171;SDS011;6651;53.200;10.432;2024-03-25T14:29:55;5.63;;;2.10;;
13171;SDS011;6651;53.200;10.432;2024-03-25T14:32:21;7.22;;;2.47;;
13171;SDS011;6651;53.200;10.432;2024-03-25T14:34:48;6.05;;;2.10;;
13171;SDS011;6651;53.200;10.432;2024-03-25T14:37:14;5.60;;;1.98;;
13171;SDS011;6651;53.200;10.432;2024-03-25T14:39:40;7.88;;;2.40;;
13171;SDS011;6651;53.200;10.432;2024-03-25T14:42:07;6.95;;;1.90;;
13171;SDS011;6651;53.200;10.432;2024-03-25T14:44:34;5.78;;;2.20;;
13171;SDS011;6651;53.200;10.432;2024-03-25T14:47:01;6.90;;;2.38;;
13171;SDS011;6651;53.200;10.432;2024-03-25T14:49:26;4.25;;;1.92;;
13171;SDS011;6651;53.200;10.432;2024-03-25T14:51:52;5.25;;;2.08;;
13171;SDS011;6651;53.200;10.432;2024-03-25T14:54:18;7.38;;;2.20;;